Bata, Equatorial Guinea
Current Conditions -  °F | °C
As of 1:00 PM on Friday 24 Oct 2014 (Local Time) from FKKD Reporting Station
Broken Clouds Broken Clouds  
Wind Chill: 88°   Ceiling: 2000
Heat Index: 98°   Visibility: 6mi
Dew Point: 75°   Wind: 5mph
Humidity: 66%   Direction: 340°NNW
Pressure: 29.83"   Gusts: NA
Location:  1.87°N, 9.76°E
Report Text: FKKD 241200Z 34004KT 9999 BKN020 FEW023CB 31/24 Q1010 NOSIG
Loading
Personal Weather Stations






























Interactive Weather Map
Tropical Storm Tracking
New forecast layout! Learn more

10-Day Weather Forecast

Advertisements
Track Severe Weather on mobile